createdAt,value
2022-10-18T00:03:34.421Z,65.97
2022-10-18T00:08:38.589Z,62.65
2022-10-18T00:13:41.627Z,60.08
2022-10-18T00:18:45.356Z,61.13
2022-10-18T00:23:49.890Z,62.97
2022-10-18T00:28:58.465Z,61.67
2022-10-18T00:34:10.444Z,60.34
2022-10-18T00:39:19.391Z,58.86
2022-10-18T00:44:25.058Z,63.75
2022-10-18T00:49:32.994Z,65.21
2022-10-18T00:54:39.170Z,62.37
2022-10-18T00:59:43.192Z,61.43
2022-10-18T01:04:47.563Z,61.36
2022-10-18T01:10:02.416Z,60.92
2022-10-18T01:15:15.466Z,60.87
2022-10-18T01:20:43.149Z,60.76
2022-10-18T01:26:01.000Z,61.05
2022-10-18T01:31:33.027Z,60.69
2022-10-18T01:36:43.889Z,60.48
2022-10-18T01:41:49.357Z,66.32
2022-10-18T01:46:54.439Z,64.32
2022-10-18T01:51:57.266Z,63.03
2022-10-18T01:57:17.001Z,62.44
2022-10-18T02:02:42.670Z,61.40
2022-10-18T02:08:12.409Z,61.50
2022-10-18T02:13:29.506Z,61.30
2022-10-18T02:18:39.171Z,61.43
2022-10-18T02:23:45.144Z,61.27
2022-10-18T02:28:48.358Z,61.19
2022-10-18T02:33:56.893Z,60.90
2022-10-18T02:39:04.782Z,61.50
2022-10-18T02:44:07.618Z,60.65
2022-10-18T02:49:10.545Z,61.83
2022-10-18T02:54:13.323Z,61.63
2022-10-18T02:59:16.642Z,61.37
2022-10-18T03:04:19.598Z,60.94
2022-10-18T03:09:22.649Z,61.35
2022-10-18T03:14:25.453Z,61.54
2022-10-18T03:19:28.260Z,61.59
2022-10-18T03:24:31.263Z,61.78
2022-10-18T03:29:34.291Z,61.84
2022-10-18T03:34:37.170Z,61.39
2022-10-18T03:39:40.322Z,61.73
2022-10-18T03:44:43.286Z,61.47
2022-10-18T03:49:46.090Z,61.64
2022-10-18T03:54:48.891Z,61.60
2022-10-18T03:59:51.691Z,61.66
2022-10-18T04:04:54.496Z,61.85
2022-10-18T04:09:57.632Z,61.94
2022-10-18T04:15:00.411Z,61.72
2022-10-18T04:20:03.717Z,61.59
2022-10-18T04:25:07.135Z,61.70
2022-10-18T04:30:10.745Z,61.39
2022-10-18T04:35:14.174Z,61.75
2022-10-18T04:40:17.487Z,61.36
2022-10-18T04:45:20.292Z,61.81
2022-10-18T04:50:23.093Z,61.39
2022-10-18T04:55:25.997Z,61.24
2022-10-18T05:00:28.797Z,61.65
2022-10-18T05:05:49.661Z,61.38
2022-10-18T05:10:54.670Z,60.56
2022-10-18T05:15:59.736Z,60.15
2022-10-18T05:21:02.735Z,59.54
2022-10-18T05:26:07.384Z,63.21
2022-10-18T05:31:11.933Z,66.11
2022-10-18T05:36:15.061Z,63.66
2022-10-18T05:41:18.452Z,62.61
2022-10-18T05:46:21.253Z,61.98
2022-10-18T05:51:24.155Z,61.97
2022-10-18T05:56:27.008Z,61.91
2022-10-18T06:01:29.867Z,61.74
2022-10-18T06:06:33.513Z,61.51
2022-10-18T06:11:37.161Z,61.04
2022-10-18T06:16:40.119Z,60.96
2022-10-18T06:21:44.551Z,60.87
2022-10-18T06:26:47.865Z,60.67
2022-10-18T06:31:50.770Z,60.24
2022-10-18T06:36:56.386Z,60.22
2022-10-18T06:42:00.981Z,60.09
2022-10-18T06:47:04.499Z,60.06
2022-10-18T06:52:07.576Z,59.73
2022-10-18T06:57:10.413Z,59.83
2022-10-18T07:02:19.768Z,60.16
2022-10-18T07:07:22.466Z,60.34
2022-10-18T07:12:25.887Z,58.80
2022-10-18T07:17:28.861Z,59.11
2022-10-18T07:22:31.792Z,65.34
2022-10-18T07:27:39.610Z,62.52
2022-10-18T07:32:42.619Z,60.47
2022-10-18T07:37:45.422Z,60.01
2022-10-18T07:42:48.221Z,59.91
2022-10-18T07:47:56.294Z,58.31
2022-10-18T07:52:59.354Z,63.92
2022-10-18T07:58:02.158Z,64.45
2022-10-18T08:03:05.266Z,62.31
2022-10-18T08:08:08.301Z,61.36
2022-10-18T08:13:11.295Z,60.85
2022-10-18T08:18:14.492Z,59.44
2022-10-18T08:23:17.292Z,62.59
2022-10-18T08:28:20.914Z,64.15
2022-10-18T08:33:23.723Z,61.68
2022-10-18T08:38:31.546Z,60.69
2022-10-18T08:43:47.546Z,59.35
2022-10-18T08:48:54.244Z,60.81
2022-10-18T08:54:04.629Z,64.73
2022-10-18T08:59:12.750Z,62.56
2022-10-18T09:04:34.389Z,61.75
2022-10-18T09:10:02.200Z,61.26
2022-10-18T09:15:14.186Z,60.66
2022-10-18T09:20:31.445Z,61.18
2022-10-18T09:25:49.906Z,61.12
2022-10-18T09:31:05.513Z,61.18
2022-10-18T09:36:11.176Z,60.78
2022-10-18T09:41:19.996Z,59.39
2022-10-18T09:46:27.882Z,63.14
2022-10-18T09:51:40.986Z,63.19
2022-10-18T09:57:09.386Z,62.10
2022-10-18T10:02:19.843Z,61.48
2022-10-18T10:07:35.449Z,60.55
2022-10-18T10:12:40.218Z,60.34
2022-10-18T10:17:43.666Z,58.97
2022-10-18T10:22:48.046Z,59.00
2022-10-18T10:27:51.082Z,66.02
2022-10-18T10:32:55.828Z,63.99
2022-10-18T10:37:59.043Z,61.31
2022-10-18T10:43:18.187Z,60.07
2022-10-18T10:48:41.200Z,59.35
2022-10-18T10:53:50.976Z,62.78
2022-10-18T10:58:58.505Z,62.57
2022-10-18T11:04:23.106Z,58.57
2022-10-18T11:09:38.574Z,62.36
2022-10-18T11:14:46.003Z,63.50
2022-10-18T11:20:07.234Z,61.01
2022-10-18T11:25:15.565Z,60.06
2022-10-18T11:30:37.926Z,60.39
2022-10-18T11:36:03.550Z,59.76
2022-10-18T11:41:17.122Z,58.90
2022-10-18T11:46:32.721Z,64.65
2022-10-18T11:51:56.330Z,63.00
2022-10-18T11:57:16.438Z,62.51
2022-10-18T12:02:47.638Z,62.21
2022-10-18T12:07:58.989Z,62.14
2022-10-18T12:13:06.908Z,61.88
2022-10-18T12:18:23.537Z,61.37
2022-10-18T12:23:29.307Z,60.50
2022-10-18T12:28:51.734Z,60.28
2022-10-18T12:34:00.613Z,59.88
2022-10-18T12:39:11.201Z,60.60
2022-10-18T12:44:24.546Z,66.99
2022-10-18T12:49:40.179Z,64.86
2022-10-18T12:55:03.941Z,62.94
2022-10-18T13:00:27.533Z,63.11
2022-10-18T13:05:55.048Z,62.32
2022-10-18T13:11:01.806Z,61.87
2022-10-18T13:16:12.087Z,61.08
2022-10-18T13:21:42.129Z,61.15
2022-10-18T13:27:24.352Z,61.10
2022-10-18T13:33:09.770Z,60.95
2022-10-18T13:38:34.779Z,61.04
2022-10-18T13:43:53.313Z,61.32
2022-10-18T13:49:17.758Z,61.58
2022-10-18T13:54:42.575Z,61.47
2022-10-18T14:00:04.021Z,61.50
2022-10-18T14:05:25.643Z,61.46
2022-10-18T14:10:57.438Z,61.24
2022-10-18T14:16:25.126Z,61.71
2022-10-18T14:21:37.482Z,61.70
2022-10-18T14:26:40.375Z,61.36
2022-10-18T14:31:50.630Z,61.57
2022-10-18T14:36:53.543Z,61.87
2022-10-18T14:41:58.594Z,61.97
2022-10-18T14:47:13.478Z,62.16
2022-10-18T14:52:24.046Z,61.55
2022-10-18T14:57:33.977Z,61.73
2022-10-18T15:02:38.984Z,61.86
2022-10-18T15:07:42.044Z,62.64
2022-10-18T15:13:08.196Z,62.35
2022-10-18T15:18:19.525Z,63.13
2022-10-18T15:23:28.387Z,63.23
2022-10-18T15:28:49.947Z,64.02
2022-10-18T15:33:55.497Z,64.97
2022-10-18T15:39:15.091Z,65.10
2022-10-18T15:44:20.759Z,64.74
2022-10-18T15:49:45.486Z,64.05
2022-10-18T16:00:08.360Z,64.12
2022-10-18T16:05:17.089Z,63.01
2022-10-18T16:10:20.337Z,63.85
2022-10-18T16:15:23.446Z,63.73
2022-10-18T16:20:27.372Z,63.83
2022-10-18T16:25:30.275Z,63.62
2022-10-18T16:30:35.432Z,63.88
2022-10-18T16:35:38.438Z,63.76
2022-10-18T16:40:41.572Z,63.46
2022-10-18T16:45:44.892Z,63.53
2022-10-18T16:50:48.772Z,63.88
2022-10-18T16:55:59.998Z,64.41
2022-10-18T17:01:05.417Z,63.83
2022-10-18T17:06:32.729Z,64.47
2022-10-18T17:11:35.539Z,64.89
2022-10-18T17:16:39.231Z,64.99
2022-10-18T17:21:42.165Z,64.64
2022-10-18T17:26:44.963Z,64.57
2022-10-18T17:31:47.763Z,64.95
2022-10-18T17:36:50.564Z,63.94
2022-10-18T17:41:56.141Z,63.78
2022-10-18T17:46:58.931Z,64.09
2022-10-18T17:52:06.085Z,64.44
2022-10-18T17:57:10.066Z,64.50
2022-10-18T18:02:12.867Z,64.00
2022-10-18T18:07:16.080Z,64.38
2022-10-18T18:12:19.322Z,63.85
2022-10-18T18:17:28.772Z,64.16
2022-10-18T18:22:40.497Z,63.83
2022-10-18T18:27:45.411Z,63.43
2022-10-18T18:32:48.213Z,63.82
2022-10-18T18:37:51.163Z,63.66
2022-10-18T18:43:07.006Z,63.94
2022-10-18T18:48:19.096Z,64.06
2022-10-18T18:53:27.121Z,64.28
2022-10-18T18:58:32.718Z,63.92
2022-10-18T19:03:37.062Z,63.63
2022-10-18T19:08:40.911Z,63.46
2022-10-18T19:13:44.752Z,63.64
2022-10-18T19:18:59.923Z,63.40
2022-10-18T19:24:04.647Z,63.11
2022-10-18T19:29:21.704Z,62.92
2022-10-18T19:34:26.145Z,62.47
2022-10-18T19:39:34.578Z,61.65
2022-10-18T19:44:37.721Z,61.54
2022-10-18T19:49:42.986Z,61.41
2022-10-18T19:54:45.850Z,61.14
2022-10-18T19:59:48.659Z,61.17
2022-10-18T20:04:51.453Z,61.02
2022-10-18T20:09:54.257Z,60.94
2022-10-18T20:14:57.570Z,60.96
2022-10-18T20:20:00.372Z,61.25
2022-10-18T20:25:03.377Z,61.43
2022-10-18T20:30:10.436Z,61.17
2022-10-18T20:35:14.511Z,61.38
2022-10-18T20:40:17.414Z,61.68
2022-10-18T20:45:20.216Z,61.63
2022-10-18T20:50:23.126Z,62.17
2022-10-18T20:55:25.929Z,62.08
2022-10-18T21:00:29.032Z,62.43
2022-10-18T21:05:32.999Z,62.26
2022-10-18T21:10:35.866Z,62.57
2022-10-18T21:15:39.076Z,62.51
2022-10-18T21:20:41.878Z,62.69
2022-10-18T21:25:50.724Z,63.07
2022-10-18T21:30:53.524Z,62.99
2022-10-18T21:35:56.323Z,63.24
2022-10-18T21:40:59.130Z,63.06
2022-10-18T21:46:02.034Z,63.05
2022-10-18T21:51:07.307Z,63.00
2022-10-18T21:56:15.928Z,62.94
2022-10-18T22:01:39.527Z,62.86
2022-10-18T22:06:42.838Z,62.95
2022-10-18T22:11:49.341Z,63.19
2022-10-18T22:16:52.335Z,63.33
2022-10-18T22:21:55.128Z,63.14
2022-10-18T22:26:58.138Z,62.90
2022-10-18T22:32:01.962Z,62.73
2022-10-18T22:37:04.765Z,62.88
2022-10-18T22:42:07.771Z,62.66
2022-10-18T22:47:10.574Z,62.59
2022-10-18T22:52:13.384Z,62.59
2022-10-18T22:57:16.175Z,62.58
2022-10-18T23:02:18.980Z,62.97
2022-10-18T23:07:21.884Z,63.39
2022-10-18T23:12:24.686Z,63.23
2022-10-18T23:17:27.487Z,63.28
2022-10-18T23:22:30.597Z,63.28
2022-10-18T23:27:33.771Z,63.04
2022-10-18T23:32:38.621Z,63.17
2022-10-18T23:37:41.456Z,63.81
2022-10-18T23:42:44.257Z,64.07
2022-10-18T23:47:47.065Z,64.05
2022-10-18T23:52:49.863Z,64.20
2022-10-18T23:57:52.870Z,64.15
